createdAt,value
2022-09-12T00:01:42.338Z,472.42
2022-09-12T00:04:30.266Z,524.20
2022-09-12T00:07:19.541Z,519.97
2022-09-12T00:10:08.087Z,501.15
2022-09-12T00:12:56.083Z,512.90
2022-09-12T00:15:45.370Z,499.90
2022-09-12T00:18:34.518Z,491.08
2022-09-12T00:21:23.415Z,502.73
2022-09-12T00:24:12.783Z,497.92
2022-09-12T00:27:00.663Z,498.17
2022-09-12T00:29:48.577Z,501.02
2022-09-12T00:32:36.536Z,484.08
2022-09-12T00:35:24.424Z,495.88
2022-09-12T00:38:12.586Z,489.60
2022-09-12T00:41:01.819Z,487.83
2022-09-12T00:43:51.020Z,501.48
2022-09-12T00:46:43.318Z,464.88
2022-09-12T00:49:34.658Z,500.80
2022-09-12T00:52:27.425Z,468.83
2022-09-12T00:55:19.400Z,513.72
2022-09-12T00:58:13.586Z,467.02
2022-09-12T01:01:01.794Z,461.65
2022-09-12T01:03:49.811Z,485.88
2022-09-12T01:06:41.743Z,481.88
2022-09-12T01:09:29.634Z,501.65
2022-09-12T01:12:18.474Z,460.88
2022-09-12T01:15:08.704Z,474.63
2022-09-12T01:18:10.920Z,483.77
2022-09-12T01:21:11.136Z,494.50
2022-09-12T01:24:26.608Z,460.90
2022-09-12T01:27:37.755Z,468.77
2022-09-12T01:30:41.257Z,445.58
2022-09-12T01:33:55.644Z,459.33
2022-09-12T01:36:52.824Z,454.55
2022-09-12T01:39:51.030Z,465.88
2022-09-12T01:42:48.203Z,453.80
2022-09-12T01:45:42.192Z,485.27
2022-09-12T01:48:35.735Z,463.52
2022-09-12T01:51:28.040Z,458.75
2022-09-12T01:54:21.644Z,460.25
2022-09-12T01:57:16.691Z,441.42
2022-09-12T02:00:10.182Z,445.92
2022-09-12T02:03:10.463Z,477.15
2022-09-12T02:06:04.443Z,464.42
2022-09-12T02:08:54.497Z,448.13
2022-09-12T02:11:45.658Z,452.05
2022-09-12T02:14:38.777Z,449.08
2022-09-12T02:17:27.698Z,441.70
2022-09-12T02:20:37.423Z,430.08
2022-09-12T02:23:31.913Z,454.92
2022-09-12T02:26:22.328Z,428.55
2022-09-12T02:29:12.301Z,450.65
2022-09-12T02:32:05.804Z,456.20
2022-09-12T02:35:00.589Z,439.13
2022-09-12T02:37:58.815Z,447.85
2022-09-12T02:40:46.827Z,445.25
2022-09-12T02:43:34.795Z,465.52
2022-09-12T02:46:27.090Z,444.02
2022-09-12T02:49:16.783Z,424.05
2022-09-12T02:52:05.285Z,425.17
2022-09-12T02:54:56.064Z,456.23
2022-09-12T02:57:44.102Z,423.90
2022-09-12T03:00:38.706Z,428.60
2022-09-12T03:03:43.270Z,430.85
2022-09-12T03:06:36.652Z,436.90
2022-09-12T03:09:35.716Z,435.45
2022-09-12T03:12:40.124Z,440.88
2022-09-12T03:15:41.954Z,428.50
2022-09-12T03:18:41.502Z,440.15
2022-09-12T03:21:34.095Z,408.35
2022-09-12T03:24:27.706Z,451.23
2022-09-12T03:27:20.757Z,415.55
2022-09-12T03:30:12.572Z,421.98
2022-09-12T03:33:00.449Z,427.85
2022-09-12T03:35:49.317Z,437.63
2022-09-12T03:38:37.197Z,427.05
2022-09-12T03:41:25.165Z,450.60
2022-09-12T03:44:13.092Z,431.45
2022-09-12T03:47:02.312Z,449.50
2022-09-12T03:49:50.222Z,436.90
2022-09-12T03:52:38.439Z,451.73
2022-09-12T03:55:26.605Z,432.20
2022-09-12T03:58:14.705Z,435.52
2022-09-12T04:01:07.606Z,421.13
2022-09-12T04:03:56.854Z,437.65
2022-09-12T04:06:44.738Z,429.35
2022-09-12T04:09:32.712Z,439.83
2022-09-12T04:12:20.701Z,446.90
2022-09-12T04:15:10.282Z,439.10
2022-09-12T04:18:02.440Z,421.70
2022-09-12T04:20:54.378Z,437.23
2022-09-12T04:23:42.882Z,413.77
2022-09-12T04:26:31.711Z,435.95
2022-09-12T04:29:19.675Z,415.75
2022-09-12T04:32:07.593Z,410.60
2022-09-12T04:34:55.476Z,442.20
2022-09-12T04:37:44.715Z,419.02
2022-09-12T04:40:33.235Z,416.98
2022-09-12T04:43:21.127Z,433.75
2022-09-12T04:46:10.072Z,414.27
2022-09-12T04:48:58.471Z,417.05
2022-09-12T04:51:46.533Z,421.67
2022-09-12T04:54:35.789Z,416.65
2022-09-12T04:57:23.661Z,445.50
2022-09-12T05:00:14.455Z,436.77
2022-09-12T05:03:02.822Z,430.77
2022-09-12T05:05:54.538Z,403.13
2022-09-12T05:08:44.577Z,441.48
2022-09-12T05:12:02.638Z,433.50
2022-09-12T05:14:44.192Z,410.00
2022-09-12T05:17:32.100Z,413.25
2022-09-12T05:20:19.968Z,419.10
2022-09-12T05:23:07.875Z,416.70
2022-09-12T05:25:58.518Z,429.90
2022-09-12T05:28:48.473Z,426.58
2022-09-12T05:31:37.042Z,424.08
2022-09-12T05:34:25.125Z,426.80
2022-09-12T05:37:13.019Z,443.20
2022-09-12T05:40:03.293Z,416.33
2022-09-12T05:42:51.251Z,425.13
2022-09-12T05:45:41.458Z,435.58
2022-09-12T05:48:29.429Z,439.58
2022-09-12T05:51:19.212Z,417.52
2022-09-12T05:54:08.959Z,423.75
2022-09-12T05:56:56.902Z,440.67
2022-09-12T05:59:45.253Z,442.23
2022-09-12T06:02:34.532Z,464.77
2022-09-12T06:05:22.764Z,436.63
2022-09-12T06:08:11.157Z,439.95
2022-09-12T06:11:03.356Z,454.70
2022-09-12T06:13:51.334Z,447.73
2022-09-12T06:16:40.039Z,455.02
2022-09-12T06:19:29.317Z,431.08
2022-09-12T06:22:17.935Z,462.17
2022-09-12T06:25:06.536Z,455.63
2022-09-12T06:27:54.395Z,469.67
2022-09-12T06:30:42.987Z,461.85
2022-09-12T06:33:31.561Z,473.45
2022-09-12T06:36:22.631Z,465.67
2022-09-12T06:39:13.077Z,511.60
2022-09-12T06:42:00.997Z,497.42
2022-09-12T06:44:55.442Z,488.00
2022-09-12T06:47:43.376Z,498.92
2022-09-12T06:50:31.280Z,509.60
2022-09-12T06:53:20.502Z,497.15
2022-09-12T06:56:11.614Z,510.25
2022-09-12T06:59:00.512Z,527.65
2022-09-12T07:01:48.465Z,514.00
2022-09-12T07:04:37.069Z,537.05
2022-09-12T07:07:25.084Z,511.10
2022-09-12T07:10:15.522Z,508.70
2022-09-12T07:13:05.893Z,507.55
2022-09-12T07:15:53.758Z,514.95
2022-09-12T07:18:41.623Z,484.95
2022-09-12T07:21:30.439Z,496.30
2022-09-12T07:24:18.305Z,507.40
2022-09-12T07:27:07.572Z,483.48
2022-09-12T07:29:55.866Z,497.73
2022-09-12T07:32:43.703Z,464.55
2022-09-12T07:35:34.361Z,480.45
2022-09-12T07:38:22.360Z,451.42
2022-09-12T07:41:13.766Z,473.55
2022-09-12T07:44:03.853Z,484.85
2022-09-12T07:46:52.227Z,480.55
2022-09-12T07:49:40.259Z,434.77
2022-09-12T07:52:28.122Z,481.00
2022-09-12T07:55:16.481Z,463.48
2022-09-12T07:58:04.620Z,477.77
2022-09-12T08:00:53.835Z,490.95
2022-09-12T08:03:42.876Z,450.23
2022-09-12T08:06:32.092Z,491.40
2022-09-12T08:09:19.945Z,475.75
2022-09-12T08:12:08.210Z,480.65
2022-09-12T08:14:56.135Z,480.58
2022-09-12T08:17:45.362Z,463.42
2022-09-12T08:20:33.253Z,474.33
2022-09-12T08:23:23.373Z,487.20
2022-09-12T08:26:12.285Z,486.15
2022-09-12T08:29:00.386Z,459.88
2022-09-12T08:31:48.312Z,461.95
2022-09-12T08:34:37.511Z,470.20
2022-09-12T08:37:25.393Z,484.55
2022-09-12T08:40:18.812Z,489.42
2022-09-12T08:43:19.177Z,506.40
2022-09-12T08:46:11.948Z,470.52
2022-09-12T08:49:03.738Z,475.42
2022-09-12T08:51:53.941Z,486.38
2022-09-12T08:54:44.600Z,484.08
2022-09-12T08:57:32.744Z,497.15
2022-09-12T09:00:21.546Z,464.30
2022-09-12T09:03:26.843Z,457.65
2022-09-12T09:06:28.051Z,453.33
2022-09-12T09:09:26.049Z,447.17
2022-09-12T09:12:23.212Z,452.67
2022-09-12T09:15:35.681Z,411.38
2022-09-12T09:18:25.875Z,421.13
2022-09-12T09:21:21.768Z,438.75
2022-09-12T09:24:11.235Z,429.20
2022-09-12T09:27:14.276Z,429.25
2022-09-12T09:30:16.660Z,388.23
2022-09-12T09:33:10.793Z,404.20
2022-09-12T09:36:05.388Z,413.48
2022-09-12T09:39:03.053Z,409.27
2022-09-12T09:42:01.514Z,413.92
2022-09-12T09:44:54.822Z,415.13
2022-09-12T09:47:43.078Z,428.20
2022-09-12T09:50:30.943Z,423.48
2022-09-12T09:53:30.492Z,432.00
2022-09-12T09:56:28.884Z,442.77
2022-09-12T09:59:19.642Z,454.27
2022-09-12T10:02:24.301Z,425.00
2022-09-12T10:05:18.067Z,438.20
2022-09-12T10:08:08.284Z,468.75
2022-09-12T10:10:58.932Z,457.00
2022-09-12T10:13:56.757Z,418.35
2022-09-12T10:16:52.652Z,419.58
2022-09-12T10:19:41.893Z,418.40
2022-09-12T10:22:30.423Z,393.40
2022-09-12T10:25:20.273Z,362.38
2022-09-12T10:28:23.989Z,398.85
2022-09-12T10:31:16.609Z,378.70
2022-09-12T10:34:05.636Z,395.05
2022-09-12T10:37:01.375Z,388.70
2022-09-12T10:39:53.703Z,372.55
2022-09-12T10:42:53.760Z,375.95
2022-09-12T10:45:41.841Z,363.58
2022-09-12T10:48:32.319Z,348.08
2022-09-12T10:51:28.722Z,367.88
2022-09-12T10:54:20.890Z,342.42
2022-09-12T10:57:53.914Z,328.15
2022-09-12T11:00:48.407Z,326.90
2022-09-12T11:03:52.317Z,326.45
2022-09-12T11:06:49.320Z,323.27
2022-09-12T11:09:47.557Z,314.95
2022-09-12T11:12:44.538Z,312.40
2022-09-12T11:15:57.703Z,311.45
2022-09-12T11:19:04.867Z,323.05
2022-09-12T11:22:14.674Z,324.92
2022-09-12T11:25:21.056Z,309.17
2022-09-12T11:28:25.020Z,306.25
2022-09-12T11:31:34.300Z,309.70
2022-09-12T11:34:30.467Z,306.27
2022-09-12T11:37:35.495Z,316.15
2022-09-12T11:40:31.052Z,330.85
2022-09-12T11:43:29.674Z,330.42
2022-09-12T11:46:22.392Z,331.38
2022-09-12T11:49:33.605Z,327.75
2022-09-12T11:52:24.930Z,334.35
2022-09-12T11:55:18.759Z,333.92
2022-09-12T11:58:09.828Z,362.00
2022-09-12T12:01:04.150Z,326.90
2022-09-12T12:03:52.580Z,341.13
2022-09-12T12:06:50.254Z,353.98
2022-09-12T12:09:47.292Z,326.15
2022-09-12T12:12:35.327Z,347.50
2022-09-12T12:15:26.509Z,329.58
2022-09-12T12:18:19.352Z,338.02
2022-09-12T12:21:39.965Z,333.90
2022-09-12T12:24:29.026Z,325.42
2022-09-12T12:27:27.036Z,347.73
2022-09-12T12:31:03.492Z,302.70
2022-09-12T12:34:29.694Z,327.50
2022-09-12T12:37:53.039Z,294.00
2022-09-12T12:40:40.908Z,295.17
2022-09-12T12:43:32.385Z,298.90
2022-09-12T12:46:24.193Z,298.85
2022-09-12T12:49:21.062Z,303.90
2022-09-12T12:52:16.917Z,284.83
2022-09-12T12:55:05.887Z,300.80
2022-09-12T12:57:55.831Z,309.55
2022-09-12T13:00:47.068Z,291.45
2022-09-12T13:03:35.534Z,297.80
2022-09-12T13:06:32.430Z,272.90
2022-09-12T13:09:25.948Z,290.30
2022-09-12T13:12:20.771Z,300.65
2022-09-12T13:15:47.482Z,288.45
2022-09-12T13:18:43.797Z,261.63
2022-09-12T13:21:31.726Z,277.73
2022-09-12T13:24:25.755Z,273.08
2022-09-12T13:27:18.783Z,276.88
2022-09-12T13:30:09.013Z,261.90
2022-09-12T13:32:59.918Z,283.05
2022-09-12T13:36:00.217Z,268.05
2022-09-12T13:38:58.812Z,264.45
2022-09-12T13:42:26.706Z,274.92
2022-09-12T13:45:20.905Z,248.77
2022-09-12T13:48:16.686Z,241.98
2022-09-12T13:51:05.935Z,256.02
2022-09-12T13:53:57.342Z,257.63
2022-09-12T13:56:49.349Z,244.48
2022-09-12T13:59:42.683Z,256.90
2022-09-12T14:02:31.298Z,265.33
2022-09-12T14:05:22.460Z,238.95
2022-09-12T14:08:14.315Z,231.23
2022-09-12T14:11:09.907Z,251.65
2022-09-12T14:13:59.179Z,225.35
2022-09-12T14:16:49.177Z,229.05
2022-09-12T14:19:37.086Z,231.55
2022-09-12T14:22:27.418Z,234.43
2022-09-12T14:25:16.404Z,230.32
2022-09-12T14:28:04.739Z,238.38
2022-09-12T14:31:21.977Z,222.75
2022-09-12T14:34:13.984Z,211.52
2022-09-12T14:37:07.791Z,217.23
2022-09-12T14:39:56.152Z,211.75
2022-09-12T14:42:44.747Z,216.55
2022-09-12T14:45:33.308Z,219.52
2022-09-12T14:48:21.246Z,204.38
2022-09-12T14:51:21.951Z,202.65
2022-09-12T14:54:36.048Z,203.68
2022-09-12T14:57:36.580Z,219.63
2022-09-12T15:00:24.531Z,213.02
2022-09-12T15:03:25.857Z,218.23
2022-09-12T15:06:23.892Z,208.70
2022-09-12T15:09:14.534Z,211.10
2022-09-12T15:12:02.655Z,215.95
2022-09-12T15:14:50.576Z,204.05
2022-09-12T15:17:38.745Z,218.57
2022-09-12T15:20:26.742Z,199.15
2022-09-12T15:23:20.962Z,211.40
2022-09-12T15:26:11.861Z,198.40
2022-09-12T15:28:59.761Z,199.88
2022-09-12T15:31:51.834Z,201.25
2022-09-12T15:34:39.708Z,185.77
2022-09-12T15:37:27.609Z,201.30
2022-09-12T15:40:17.783Z,203.13
2022-09-12T15:43:05.952Z,202.95
2022-09-12T15:45:53.990Z,198.35
2022-09-12T15:48:41.933Z,206.60
2022-09-12T15:51:29.909Z,198.07
2022-09-12T15:54:19.099Z,205.75
2022-09-12T15:57:08.393Z,210.55
2022-09-12T15:59:56.279Z,201.90
2022-09-12T16:02:44.392Z,201.93
2022-09-12T16:05:32.729Z,208.15
2022-09-12T16:08:20.626Z,195.45
2022-09-12T16:11:13.123Z,210.02
2022-09-12T16:14:03.688Z,193.60
2022-09-12T16:16:57.541Z,178.73
2022-09-12T16:19:45.453Z,224.75
2022-09-12T16:22:33.387Z,213.63
2022-09-12T16:25:21.301Z,217.52
2022-09-12T16:28:09.855Z,242.52
2022-09-12T16:31:00.178Z,228.13
2022-09-12T16:33:48.478Z,250.77
2022-09-12T16:36:36.400Z,265.13
2022-09-12T16:39:24.253Z,253.40
2022-09-12T16:42:12.160Z,259.02
2022-09-12T16:45:00.240Z,292.65
2022-09-12T16:47:49.457Z,270.75
2022-09-12T16:50:37.315Z,262.50
2022-09-12T16:53:25.153Z,275.88
2022-09-12T16:56:13.618Z,294.30
2022-09-12T16:59:01.469Z,304.00
2022-09-12T17:01:49.389Z,300.23
2022-09-12T17:04:38.625Z,319.40
2022-09-12T17:07:26.473Z,328.20
2022-09-12T17:10:14.400Z,332.08
2022-09-12T17:13:03.112Z,339.70
2022-09-12T17:15:51.318Z,378.90
2022-09-12T17:18:39.349Z,387.13
2022-09-12T17:21:28.711Z,422.38
2022-09-12T17:24:17.490Z,428.13
2022-09-12T17:27:05.831Z,431.13
2022-09-12T17:29:53.978Z,453.95
2022-09-12T17:32:41.843Z,418.45
2022-09-12T17:35:29.875Z,423.65
2022-09-12T17:38:24.578Z,411.20
2022-09-12T17:41:15.919Z,411.17
2022-09-12T17:44:07.214Z,397.42
2022-09-12T17:46:55.072Z,398.95
2022-09-12T17:49:42.905Z,411.38
2022-09-12T17:52:31.529Z,433.70
2022-09-12T17:55:20.889Z,395.27
2022-09-12T17:58:09.388Z,417.17
2022-09-12T18:01:19.375Z,427.83
2022-09-12T18:04:07.302Z,443.95
2022-09-12T18:06:57.383Z,446.70
2022-09-12T18:09:47.653Z,445.92
2022-09-12T18:12:37.573Z,496.20
2022-09-12T18:15:26.016Z,495.02
2022-09-12T18:18:15.113Z,499.98
2022-09-12T18:21:03.869Z,465.65
2022-09-12T18:23:51.692Z,466.52
2022-09-12T18:26:39.761Z,484.98
2022-09-12T18:29:29.017Z,466.17
2022-09-12T18:32:16.876Z,496.10
2022-09-12T18:35:05.810Z,495.33
2022-09-12T18:37:53.743Z,533.13
2022-09-12T18:40:41.611Z,493.88
2022-09-12T18:43:29.461Z,502.98
2022-09-12T18:46:20.522Z,544.78
2022-09-12T18:49:09.300Z,529.50
2022-09-12T18:51:57.153Z,529.28
2022-09-12T18:54:45.012Z,546.95
2022-09-12T18:57:35.017Z,511.92
2022-09-12T19:00:23.028Z,519.60
2022-09-12T19:03:12.250Z,525.00
2022-09-12T19:06:00.165Z,524.22
2022-09-12T19:08:48.884Z,539.58
2022-09-12T19:11:38.367Z,518.78
2022-09-12T19:14:27.363Z,524.35
2022-09-12T19:17:15.284Z,541.60
2022-09-12T19:20:05.713Z,516.70
2022-09-12T19:22:53.598Z,524.67
2022-09-12T19:25:41.585Z,526.85
2022-09-12T19:28:29.525Z,511.80
2022-09-12T19:31:20.198Z,513.17
2022-09-12T19:34:08.708Z,510.70
2022-09-12T19:36:59.323Z,474.85
2022-09-12T19:39:47.254Z,497.35
2022-09-12T19:42:35.198Z,480.58
2022-09-12T19:45:23.264Z,473.98
2022-09-12T19:48:11.156Z,461.35
2022-09-12T19:51:00.126Z,453.90
2022-09-12T19:53:50.125Z,461.08
2022-09-12T19:56:38.191Z,441.63
2022-09-12T19:59:26.139Z,457.88
2022-09-12T20:02:14.062Z,485.45
2022-09-12T20:05:02.297Z,434.67
2022-09-12T20:07:50.157Z,443.77
2022-09-12T20:10:39.363Z,447.60
2022-09-12T20:13:27.656Z,444.30
2022-09-12T20:16:21.643Z,441.67
2022-09-12T20:19:10.605Z,402.15
2022-09-12T20:21:58.700Z,412.38
2022-09-12T20:24:46.541Z,425.77
2022-09-12T20:27:35.755Z,400.70
2022-09-12T20:30:23.684Z,425.83
2022-09-12T20:33:11.549Z,407.80
2022-09-12T20:36:07.334Z,433.50
2022-09-12T20:38:57.961Z,423.67
2022-09-12T20:41:46.541Z,424.05
2022-09-12T20:44:35.773Z,444.67
2022-09-12T20:47:23.631Z,429.95
2022-09-12T20:50:11.605Z,396.73
2022-09-12T20:53:01.179Z,436.75
2022-09-12T20:55:52.570Z,422.08
2022-09-12T20:58:43.805Z,416.55
2022-09-12T21:01:34.185Z,429.88
2022-09-12T21:04:23.706Z,418.58
2022-09-12T21:07:11.693Z,432.83
2022-09-12T21:09:59.557Z,414.00
2022-09-12T21:12:47.434Z,439.35
2022-09-12T21:15:35.288Z,417.67
2022-09-12T21:18:24.479Z,413.00
2022-09-12T21:21:13.784Z,445.33
2022-09-12T21:24:03.630Z,399.40
2022-09-12T21:26:51.498Z,413.23
2022-09-12T21:29:39.462Z,405.15
2022-09-12T21:32:32.417Z,392.98
2022-09-12T21:35:21.891Z,398.52
2022-09-12T21:38:09.728Z,412.50
2022-09-12T21:41:04.100Z,411.02
2022-09-12T21:43:51.998Z,411.35
2022-09-12T21:46:39.949Z,416.10
2022-09-12T21:49:28.131Z,414.40
2022-09-12T21:52:17.354Z,405.67
2022-09-12T21:55:07.051Z,429.73
2022-09-12T21:57:55.017Z,428.55
2022-09-12T22:00:43.713Z,438.00
2022-09-12T22:03:32.659Z,445.75
2022-09-12T22:06:22.541Z,436.40
2022-09-12T22:09:12.029Z,439.50
2022-09-12T22:11:59.901Z,431.17
2022-09-12T22:14:48.232Z,464.15
2022-09-12T22:17:36.120Z,438.15
2022-09-12T22:20:24.053Z,457.38
2022-09-12T22:23:30.546Z,453.90
2022-09-12T22:26:20.367Z,428.70
2022-09-12T22:29:09.885Z,448.23
2022-09-12T22:31:57.809Z,432.80
2022-09-12T22:34:45.780Z,440.20
2022-09-12T22:37:33.631Z,428.30
2022-09-12T22:40:21.591Z,414.00
2022-09-12T22:43:11.409Z,420.15
2022-09-12T22:45:59.526Z,402.63
2022-09-12T22:48:47.684Z,431.88
2022-09-12T22:51:35.884Z,456.58
2022-09-12T22:54:23.733Z,429.13
2022-09-12T22:57:11.983Z,434.95
2022-09-12T23:00:01.198Z,464.90
2022-09-12T23:02:49.064Z,440.00
2022-09-12T23:05:37.835Z,426.60
2022-09-12T23:08:29.329Z,428.08
2022-09-12T23:11:19.076Z,441.77
2022-09-12T23:14:07.158Z,440.95
2022-09-12T23:16:56.473Z,446.52
2022-09-12T23:19:44.538Z,427.88
2022-09-12T23:22:32.646Z,459.42
2022-09-12T23:25:23.470Z,433.35
2022-09-12T23:28:14.652Z,440.88
2022-09-12T23:31:03.112Z,423.10
2022-09-12T23:33:53.303Z,444.45
2022-09-12T23:36:41.232Z,442.80
2022-09-12T23:39:29.141Z,463.33
2022-09-12T23:42:17.871Z,457.27
2022-09-12T23:45:06.271Z,468.95
2022-09-12T23:47:54.137Z,482.90
2022-09-12T23:50:45.981Z,484.83
2022-09-12T23:53:35.551Z,493.20
2022-09-12T23:56:23.438Z,500.63
2022-09-12T23:59:11.285Z,492.15
